首页
METAR-TAF:

METAR-TAF

机场 :

特拉维夫 / 本·古里安, 以色列

本-古里安国际机场

纬度: 32-00N, 经度: 034-54E, 海拔: 40米

当前天气观测

该预报发布于20分钟前的23:50 UTC
风速4节,风向南转南东
温度 13°C
湿度 94%
气压 1015 hPa
能见度10公里或以上
散云层高于3200英尺
散云层高于4500英尺

METAR: LLBG 172350Z 16004KT 9999 SCT032 SCT045 13/12 Q1015 NOSIG

时间: 02:10 (00:10 UTC)

预报

该预报发布于1小时和8分钟前的23:02 UTC
预报有效从18日的 00点(UTC)到 18日的 24点(UTC)
风速10节,风向南转南东
能见度10公里或以上
散云层高于2000英尺
成为
从 18日的 06点(UTC)到 18日的 08点(UTC)
风速15节,风向西转西南
少量云层高于5000英尺
成为
从 18日的 15点(UTC)到 18日的 17点(UTC)
风速18节,风向南转西南,有时为28节阵风
能見度: 6000
散云层高于5000英尺
从 18日的 2000点(UTC)
风速24节,风向西,有时为34节阵风
能見度: 4000
散云层高于2000英尺, 塔状积云.
阵雨

TAF: LLBG 172302Z 1800/1824 16010KT 9999 SCT020 BECMG 1806/1808 25015KT FEW050 BECMG 1815/1817 20018G28KT 6000 SCT050 FM182000 28024G34KT 4000 SHRA SCT020TCU TX19/1812Z TN11/1804Z

超过4000个机场的气象观测和天气预报(METAR&TAF报告)。

可查询的气象台以黄色和红色小点在地图上表示。

将鼠标移到小点上方,可查看气象台名称。

然后点击查看天气观测和预报。

如需切换地图:点击带黑十字的绿色按钮放大地图;点击带横线的绿色按钮缩小地图;或者点击绿色箭头查看邻近地区的地图。


METAR-TAF: